Time;durP1;ratioP1;P1;durP2;ratioP2;P2;SDS_P1;SDS_P2;PMS_P1;PMS_P2;Temp;Humidity;BMP_temperature;BMP_pressure;BME280_temperature;BME280_humidity;BME280_pressure;Samples;Min_cycle;Max_cycle;Signal;HPM_P1;HPM_P2
2023/10/18 00:01:49;;;;;;;1.67;1.00;;;11.40;1.00;;;;;;5108827;28;20298;-89
2023/10/18 00:04:28;;;;;;;1.80;1.08;;;11.40;1.00;;;;;;5099065;28;20083;-88
2023/10/18 00:06:55;;;;;;;1.88;0.85;;;11.40;1.00;;;;;;5086077;28;20059;-88
2023/10/18 00:12:23;;;;;;;2.30;1.05;;;11.40;1.00;;;;;;5108051;28;20123;-87
2023/10/18 00:14:52;;;;;;;1.40;0.80;;;11.40;1.00;;;;;;5086113;28;20055;-88
2023/10/18 00:17:20;;;;;;;1.25;0.65;;;11.40;1.00;;;;;;5109284;28;20053;-87
2023/10/18 00:19:48;;;;;;;1.52;0.90;;;11.40;1.00;;;;;;5107894;28;20039;-87
2023/10/18 00:22:29;;;;;;;1.23;1.00;;;11.40;1.00;;;;;;5076747;28;20058;-88
2023/10/18 00:25:06;;;;;;;1.75;0.95;;;11.40;1.00;;;;;;5107945;28;20059;-88
2023/10/18 00:27:35;;;;;;;1.30;0.88;;;11.40;1.00;;;;;;5072352;28;20052;-88
2023/10/18 00:30:12;;;;;;;1.60;1.10;;;11.40;1.00;;;;;;5108516;28;20576;-89
2023/10/18 00:32:45;;;;;;;1.48;0.85;;;11.40;1.00;;;;;;5092880;28;20135;-89
2023/10/18 00:35:19;;;;;;;2.50;1.20;;;11.40;1.00;;;;;;5090102;28;20527;-88
2023/10/18 00:37:54;;;;;;;2.33;1.52;;;11.40;1.00;;;;;;5093092;28;20442;-89
2023/10/18 00:43:19;;;;;;;2.88;1.30;;;11.40;1.00;;;;;;5110917;28;20134;-89
2023/10/18 00:45:50;;;;;;;1.95;1.10;;;11.40;1.00;;;;;;5112480;28;20094;-88
2023/10/18 00:48:29;;;;;;;1.65;0.88;;;11.40;1.00;;;;;;5107351;28;20064;-89
2023/10/18 00:50:58;;;;;;;1.48;0.90;;;11.40;1.00;;;;;;5123671;28;20059;-90
2023/10/18 00:53:30;;;;;;;1.25;0.93;;;11.40;1.00;;;;;;5083274;28;20040;-88
2023/10/18 00:56:12;;;;;;;2.33;1.20;;;11.40;1.00;;;;;;5060195;28;20534;-88
2023/10/18 00:58:48;;;;;;;2.00;1.20;;;11.40;1.00;;;;;;5073588;28;20143;-88
2023/10/18 01:01:20;;;;;;;2.33;0.90;;;11.40;1.00;;;;;;5091095;28;20056;-89
2023/10/18 01:03:50;;;;;;;2.08;1.40;;;11.40;1.00;;;;;;5089258;28;20044;-88
2023/10/18 01:06:21;;;;;;;3.15;1.80;;;11.40;1.00;;;;;;5092985;28;20059;-88
2023/10/18 01:08:50;;;;;;;2.30;1.30;;;11.40;1.00;;;;;;5111240;28;20127;-88
2023/10/18 01:11:29;;;;;;;1.70;1.17;;;11.40;1.00;;;;;;5110452;28;20043;-89
2023/10/18 01:14:00;;;;;;;1.60;0.80;;;11.40;1.00;;;;;;5110592;28;20048;-88
2023/10/18 01:16:31;;;;;;;2.03;1.02;;;11.40;1.00;;;;;;5077107;28;20048;-89
2023/10/18 01:19:01;;;;;;;3.22;1.10;;;11.40;1.00;;;;;;5094500;28;20079;-89
2023/10/18 01:21:35;;;;;;;1.60;1.20;;;11.40;1.00;;;;;;5091703;28;20068;-89
2023/10/18 01:24:14;;;;;;;2.50;1.55;;;11.50;1.00;;;;;;5089606;28;20480;-89
2023/10/18 01:26:48;;;;;;;2.33;1.30;;;11.40;1.00;;;;;;5094798;28;20055;-89
2023/10/18 01:29:22;;;;;;;2.28;1.35;;;11.40;1.00;;;;;;5110969;28;20493;-89
2023/10/18 01:31:54;;;;;;;2.05;1.27;;;11.40;1.00;;;;;;5095216;28;20162;-88
2023/10/18 01:34:23;;;;;;;2.92;1.33;;;11.40;1.00;;;;;;5090681;28;20093;-88
2023/10/18 01:36:57;;;;;;;1.98;1.30;;;11.30;1.00;;;;;;5092651;28;20051;-89
2023/10/18 01:39:33;;;;;;;2.55;1.20;;;11.30;1.00;;;;;;5111451;28;20086;-89
2023/10/18 01:42:06;;;;;;;1.65;1.05;;;11.30;1.00;;;;;;5092514;28;20078;-88
2023/10/18 01:44:33;;;;;;;1.98;1.40;;;11.30;1.00;;;;;;5108018;28;20131;-88
2023/10/18 01:47:06;;;;;;;2.92;1.60;;;11.20;1.00;;;;;;5076066;28;20419;-89
2023/10/18 01:49:43;;;;;;;2.47;1.42;;;11.20;1.00;;;;;;5078209;28;20079;-88
2023/10/18 01:52:17;;;;;;;2.20;1.00;;;11.20;1.00;;;;;;5095816;28;20400;-88
2023/10/18 01:54:46;;;;;;;2.28;1.23;;;11.20;1.00;;;;;;5078518;28;20059;-89
2023/10/18 01:57:15;;;;;;;1.65;1.10;;;11.20;1.00;;;;;;5093218;28;20048;-88
2023/10/18 01:59:46;;;;;;;1.58;0.90;;;11.20;1.00;;;;;;5110124;28;20055;-88
2023/10/18 02:02:15;;;;;;;1.67;1.08;;;11.20;1.00;;;;;;5092041;28;20051;-88
2023/10/18 02:04:49;;;;;;;1.90;1.25;;;11.20;1.00;;;;;;5110789;28;20048;-88
2023/10/18 02:07:21;;;;;;;2.13;1.30;;;11.20;1.00;;;;;;5094078;28;20461;-89
2023/10/18 02:09:49;;;;;;;3.72;1.50;;;11.20;1.00;;;;;;5110349;28;20048;-88
2023/10/18 02:12:20;;;;;;;2.42;1.35;;;11.20;1.00;;;;;;5091400;28;20067;-88
2023/10/18 02:14:51;;;;;;;2.85;1.77;;;11.20;1.00;;;;;;5077473;28;20047;-86
2023/10/18 02:17:18;;;;;;;3.28;1.38;;;11.20;1.00;;;;;;5109230;28;20058;-88
2023/10/18 02:19:48;;;;;;;3.40;1.83;;;11.30;1.00;;;;;;5109441;28;20070;-87
2023/10/18 02:22:16;;;;;;;2.42;1.55;;;11.30;1.00;;;;;;5095212;28;20107;-88
2023/10/18 02:24:45;;;;;;;2.28;1.70;;;11.30;1.00;;;;;;5097212;28;20047;-88
2023/10/18 02:27:15;;;;;;;2.63;1.83;;;11.30;1.00;;;;;;5083807;28;20056;-87
2023/10/18 02:29:46;;;;;;;3.20;1.50;;;11.30;1.00;;;;;;5092298;28;20455;-86
2023/10/18 02:35:04;;;;;;;2.25;1.52;;;11.40;1.00;;;;;;5093336;28;20040;-87
2023/10/18 02:37:32;;;;;;;2.30;1.52;;;11.40;1.00;;;;;;5077996;28;20607;-87
2023/10/18 02:40:08;;;;;;;3.22;1.30;;;11.40;1.00;;;;;;5095662;28;20059;-86
2023/10/18 02:42:39;;;;;;;3.10;1.70;;;11.40;1.00;;;;;;5095315;28;20098;-87
2023/10/18 02:45:13;;;;;;;3.05;1.70;;;11.40;1.00;;;;;;5113288;28;20048;-87
2023/10/18 02:47:44;;;;;;;4.20;1.50;;;11.50;1.00;;;;;;5097501;28;20046;-87
2023/10/18 02:50:14;;;;;;;2.67;1.63;;;11.40;1.00;;;;;;5080620;28;20164;-87
2023/10/18 02:52:42;;;;;;;3.72;2.00;;;11.40;1.00;;;;;;5103349;28;20117;-87
2023/10/18 02:55:09;;;;;;;2.58;1.48;;;11.40;1.00;;;;;;5084560;28;20060;-86
2023/10/18 02:57:46;;;;;;;3.00;1.70;;;11.40;1.00;;;;;;5071068;28;20116;-87
2023/10/18 03:00:18;;;;;;;2.95;1.55;;;11.40;1.00;;;;;;5078021;28;20497;-88
2023/10/18 03:02:46;;;;;;;4.30;1.90;;;11.40;1.00;;;;;;5096762;28;20048;-89
2023/10/18 03:05:18;;;;;;;4.05;2.30;;;11.40;1.00;;;;;;5113597;28;20183;-88
2023/10/18 03:07:49;;;;;;;2.28;1.48;;;11.40;1.00;;;;;;5079814;28;20047;-88
2023/10/18 03:10:27;;;;;;;3.25;1.83;;;11.40;1.00;;;;;;5078173;28;20511;-87
2023/10/18 03:12:55;;;;;;;2.83;1.75;;;11.40;1.00;;;;;;5081052;28;20052;-88
2023/10/18 03:15:24;;;;;;;3.50;2.08;;;11.40;1.00;;;;;;5079333;28;20046;-88
2023/10/18 03:17:56;;;;;;;4.40;2.42;;;11.40;1.00;;;;;;5079032;28;20051;-88
2023/10/18 03:20:24;;;;;;;3.42;1.92;;;11.40;1.00;;;;;;5080110;28;20043;-87
2023/10/18 03:22:52;;;;;;;2.78;1.85;;;11.40;5.10;;;;;;5078593;28;20081;-89
2023/10/18 03:25:26;;;;;;;3.17;1.60;;;11.40;1.00;;;;;;5078091;28;20047;-88
2023/10/18 03:28:04;;;;;;;3.45;1.60;;;11.40;3.30;;;;;;5080547;28;20501;-88
2023/10/18 03:30:45;;;;;;;4.50;1.85;;;11.40;4.90;;;;;;5079783;28;20051;-88
2023/10/18 03:33:14;;;;;;;2.22;1.33;;;11.40;7.40;;;;;;5073767;28;20044;-88
2023/10/18 03:35:44;;;;;;;3.58;1.90;;;11.40;11.50;;;;;;5091783;28;20135;-86
2023/10/18 03:38:17;;;;;;;2.90;1.90;;;11.40;14.30;;;;;;5081450;28;20059;-87
2023/10/18 03:41:07;;;;;;;3.92;1.92;;;11.50;15.80;;;;;;5078939;28;20131;-89
2023/10/18 03:43:36;;;;;;;2.90;1.80;;;11.50;19.50;;;;;;5065885;28;20052;-89
2023/10/18 03:48:40;;;;;;;3.10;2.10;;;11.50;23.90;;;;;;5091857;28;20055;-88
2023/10/18 03:51:25;;;;;;;2.20;1.30;;;11.50;26.60;;;;;;5092652;28;20055;-88
2023/10/18 03:53:56;;;;;;;2.22;1.35;;;11.50;26.10;;;;;;5083369;28;20044;-87
2023/10/18 03:56:23;;;;;;;2.05;1.30;;;11.50;27.10;;;;;;5090890;28;20048;-88
2023/10/18 03:59:00;;;;;;;2.88;1.45;;;11.50;30.00;;;;;;5092548;28;20056;-89
2023/10/18 04:01:28;;;;;;;2.55;1.70;;;11.50;43.00;;;;;;5090876;28;20055;-88
2023/10/18 04:03:56;;;;;;;1.92;1.42;;;11.50;50.90;;;;;;5102080;28;20522;-87
2023/10/18 04:06:32;;;;;;;2.53;1.38;;;11.50;53.30;;;;;;5112026;27;20065;-88
2023/10/18 04:09:13;;;;;;;3.22;1.65;;;11.50;69.80;;;;;;5077929;28;20050;-88
2023/10/18 04:11:40;;;;;;;2.05;1.15;;;11.50;77.70;;;;;;5080811;28;20171;-87
2023/10/18 04:14:10;;;;;;;2.13;1.73;;;11.50;82.20;;;;;;5084893;28;20394;-88
2023/10/18 04:16:37;;;;;;;2.55;1.88;;;11.50;94.70;;;;;;5085039;28;20618;-88
2023/10/18 04:19:07;;;;;;;1.95;1.10;;;11.50;98.50;;;;;;5094416;28;20043;-89
2023/10/18 04:21:35;;;;;;;1.73;1.30;;;11.50;99.90;;;;;;5094296;28;20055;-89
2023/10/18 04:24:04;;;;;;;1.92;1.20;;;11.50;99.90;;;;;;5089115;28;20109;-88
2023/10/18 04:26:36;;;;;;;2.30;1.58;;;11.50;99.90;;;;;;5073665;28;20059;-88
2023/10/18 04:29:10;;;;;;;4.40;1.83;;;11.50;99.90;;;;;;5074856;28;20040;-88
2023/10/18 04:31:40;;;;;;;3.45;1.70;;;11.50;99.90;;;;;;5076347;28;20118;-88
2023/10/18 04:34:11;;;;;;;2.05;1.33;;;11.50;99.90;;;;;;5079887;28;20656;-86
2023/10/18 04:36:43;;;;;;;2.80;1.38;;;11.50;99.90;;;;;;5095607;28;20054;-87
2023/10/18 04:39:27;;;;;;;2.47;1.77;;;11.50;99.90;;;;;;5096431;28;20055;-88
2023/10/18 04:41:56;;;;;;;2.60;1.50;;;11.50;99.90;;;;;;5079020;28;20299;-88
2023/10/18 04:44:24;;;;;;;3.05;1.40;;;11.40;99.90;;;;;;5072689;28;20043;-88
2023/10/18 04:46:53;;;;;;;2.72;1.75;;;11.40;99.90;;;;;;5078599;28;20518;-88
2023/10/18 04:52:04;;;;;;;2.08;1.38;;;11.40;99.90;;;;;;5095162;28;20043;-88
2023/10/18 04:54:53;;;;;;;3.53;1.40;;;11.40;99.90;;;;;;5105976;28;20055;-88
2023/10/18 04:57:22;;;;;;;2.88;1.58;;;11.50;99.90;;;;;;5112539;28;20090;-88
2023/10/18 04:59:59;;;;;;;2.80;1.20;;;11.40;99.90;;;;;;5107074;28;20040;-88
2023/10/18 05:02:30;;;;;;;3.05;2.00;;;11.40;99.90;;;;;;5104399;28;20067;-89
2023/10/18 05:05:10;;;;;;;4.57;2.03;;;11.40;99.90;;;;;;5097185;28;20047;-89
2023/10/18 05:07:42;;;;;;;3.13;2.03;;;11.40;99.90;;;;;;5092817;28;20644;-89
2023/10/18 05:10:19;;;;;;;4.50;3.00;;;11.30;99.90;;;;;;5076051;28;20063;-89
2023/10/18 05:13:07;;;;;;;3.63;1.90;;;11.30;99.90;;;;;;5073644;28;20139;-87
2023/10/18 05:15:37;;;;;;;3.80;2.00;;;11.30;99.90;;;;;;5097520;28;20044;-88
2023/10/18 05:18:25;;;;;;;2.92;2.10;;;11.30;99.90;;;;;;5084062;28;20100;-88
2023/10/18 05:20:58;;;;;;;2.90;1.83;;;11.20;99.90;;;;;;5070338;28;20105;-86
2023/10/18 05:23:26;;;;;;;4.25;1.77;;;11.20;99.90;;;;;;5100291;28;20073;-87
2023/10/18 05:26:08;;;;;;;3.78;1.90;;;11.20;99.90;;;;;;5079492;28;20047;-86
2023/10/18 05:29:01;;;;;;;3.15;1.90;;;11.20;99.90;;;;;;5086648;28;20138;-87
2023/10/18 05:31:48;;;;;;;3.50;1.90;;;11.20;99.90;;;;;;5087631;28;20052;-88
2023/10/18 05:34:19;;;;;;;2.78;1.80;;;11.10;1.00;;;;;;5081663;28;20085;-86
2023/10/18 05:39:27;;;;;;;3.55;1.90;;;11.10;1.00;;;;;;5089058;28;20063;-87
2023/10/18 05:42:13;;;;;;;4.88;2.20;;;11.10;1.00;;;;;;5096247;28;20043;-87
2023/10/18 05:44:41;;;;;;;2.88;1.55;;;11.10;1.00;;;;;;5083907;28;20773;-86
2023/10/18 05:47:08;;;;;;;3.28;2.00;;;11.10;1.00;;;;;;5099192;28;20071;-86
2023/10/18 05:49:41;;;;;;;4.45;1.88;;;11.10;1.00;;;;;;5066416;28;20050;-85
2023/10/18 05:54:38;;;;;;;3.35;1.80;;;11.10;54.90;;;;;;5091923;28;20075;-84
2023/10/18 05:57:08;;;;;;;3.67;2.00;;;11.10;94.30;;;;;;5086278;28;20060;-84
2023/10/18 05:59:35;;;;;;;3.30;2.10;;;11.10;99.90;;;;;;5095413;28;20130;-85
2023/10/18 06:02:10;;;;;;;3.92;2.30;;;11.10;99.90;;;;;;5091484;28;20067;-84
2023/10/18 06:04:43;;;;;;;3.72;1.77;;;11.10;99.90;;;;;;5087474;28;20490;-85
2023/10/18 06:07:10;;;;;;;2.73;1.70;;;11.10;99.90;;;;;;5089796;28;20120;-84
2023/10/18 06:09:48;;;;;;;2.58;1.80;;;11.10;99.90;;;;;;5072801;28;20040;-84
2023/10/18 06:12:22;;;;;;;3.83;1.90;;;11.10;99.90;;;;;;5070865;28;21092;-84
2023/10/18 06:14:53;;;;;;;;;;;11.10;99.90;;;;;;5068032;28;20423;-85
2023/10/18 06:17:22;;;;;;;2.65;1.60;;;11.20;96.60;;;;;;5086518;28;20429;-83
2023/10/18 06:19:51;;;;;;;2.30;1.70;;;11.20;90.70;;;;;;5089614;28;20051;-85
2023/10/18 06:22:28;;;;;;;3.08;1.70;;;11.20;89.70;;;;;;5058358;28;20071;-83
2023/10/18 06:25:00;;;;;;;2.95;1.83;;;11.20;83.20;;;;;;5095846;28;20683;-85
2023/10/18 06:27:28;;;;;;;3.53;2.28;;;11.20;74.30;;;;;;5103527;28;20056;-85
2023/10/18 06:29:55;;;;;;;5.15;2.28;;;11.20;83.40;;;;;;5083907;28;20557;-85
2023/10/18 06:32:24;;;;;;;4.65;2.20;;;11.20;83.40;;;;;;5092943;28;20074;-84
2023/10/18 06:35:09;;;;;;;4.93;2.28;;;11.20;90.10;;;;;;5085105;28;20443;-86
2023/10/18 06:37:42;;;;;;;3.15;2.60;;;11.20;90.20;;;;;;5092489;28;20096;-86
2023/10/18 06:40:43;;;;;;;;;;;11.20;96.90;;;;;;5100987;28;20048;-85
2023/10/18 06:43:23;;;;;;;3.60;2.58;;;11.30;83.70;;;;;;5107794;27;19970;-83
2023/10/18 06:45:50;;;;;;;5.93;3.15;;;11.40;34.50;;;;;;5091696;28;20050;-85
2023/10/18 06:48:19;;;;;;;4.03;2.45;;;11.40;1.00;;;;;;5094693;28;20044;-85
2023/10/18 06:50:48;;;;;;;4.25;2.33;;;11.40;1.00;;;;;;5089919;28;20058;-84
2023/10/18 06:53:18;;;;;;;3.60;2.25;;;11.40;1.00;;;;;;5100960;28;20400;-83
2023/10/18 06:55:55;;;;;;;4.18;2.45;;;11.50;1.00;;;;;;5094679;27;20541;-84
2023/10/18 07:00:55;;;;;;;4.50;2.40;;;11.60;1.00;;;;;;5104160;28;20047;-84
2023/10/18 07:03:27;;;;;;;4.45;2.70;;;11.70;1.00;;;;;;5065921;28;20719;-85
2023/10/18 07:05:57;;;;;;;3.20;1.83;;;11.70;99.90;;;;;;5077025;28;20127;-85
2023/10/18 07:08:32;;;;;;;3.22;2.35;;;11.70;99.90;;;;;;5074018;28;20048;-84
2023/10/18 07:11:01;;;;;;;2.65;1.92;;;11.70;99.90;;;;;;5072470;28;20044;-84
2023/10/18 07:13:50;;;;;;;3.03;2.20;;;11.70;99.90;;;;;;5090292;28;20559;-85
2023/10/18 07:16:38;;;;;;;3.65;2.53;;;11.80;99.90;;;;;;5072276;28;20516;-84
2023/10/18 07:21:55;;;;;;;3.85;2.20;;;11.80;99.90;;;;;;5110682;28;20100;-85
2023/10/18 07:24:24;;;;;;;2.95;2.05;;;11.80;99.90;;;;;;5071239;28;20562;-84
2023/10/18 07:26:53;;;;;;;5.47;3.67;;;11.90;99.90;;;;;;5055266;28;20044;-85
2023/10/18 07:29:21;;;;;;;5.45;3.70;;;12.00;99.90;;;;;;5083138;28;20081;-85
2023/10/18 07:31:48;;;;;;;4.70;3.47;;;12.00;99.90;;;;;;5073561;28;20044;-85
2023/10/18 07:34:18;;;;;;;3.42;2.50;;;12.00;99.90;;;;;;5092263;28;20048;-84
2023/10/18 07:36:47;;;;;;;3.65;2.20;;;12.10;99.90;;;;;;5094348;28;20044;-84
2023/10/18 07:39:16;;;;;;;4.95;2.20;;;12.10;99.90;;;;;;5096698;28;20043;-83
2023/10/18 07:41:46;;;;;;;3.03;2.00;;;12.20;99.90;;;;;;5098171;28;20161;-85
2023/10/18 07:44:23;;;;;;;3.00;2.40;;;12.20;99.90;;;;;;5106942;28;20055;-84
2023/10/18 07:46:50;;;;;;;5.15;3.20;;;12.20;99.90;;;;;;5104898;28;20073;-86
2023/10/18 07:49:18;;;;;;;3.50;2.75;;;12.20;99.90;;;;;;5085338;28;20421;-84
2023/10/18 07:51:50;;;;;;;4.72;2.97;;;12.20;99.90;;;;;;5099807;28;20077;-84
2023/10/18 07:54:21;;;;;;;3.38;2.13;;;12.20;99.90;;;;;;5079905;28;20060;-85
2023/10/18 07:56:54;;;;;;;3.95;2.47;;;12.30;99.90;;;;;;5072292;28;20247;-84
2023/10/18 07:59:28;;;;;;;4.82;2.70;;;12.40;99.90;;;;;;5086463;28;20048;-84
2023/10/18 08:02:13;;;;;;;3.67;2.65;;;12.40;99.90;;;;;;5088247;28;20052;-84
2023/10/18 08:04:42;;;;;;;;;;;12.40;99.90;;;;;;5093110;28;20408;-89
2023/10/18 08:07:12;;;;;;;3.80;2.10;;;12.50;99.90;;;;;;5081234;28;19920;-87
2023/10/18 08:09:41;;;;;;;3.50;2.33;;;12.60;90.80;;;;;;5110095;28;20401;-88
2023/10/18 08:15:13;;;;;;;4.43;3.05;;;12.70;68.40;;;;;;5095081;28;20393;-88
2023/10/18 08:22:50;;;;;;;3.38;1.88;;;12.80;45.50;;;;;;5102371;28;20052;-86
2023/10/18 08:25:29;;;;;;;2.75;1.77;;;12.80;30.50;;;;;;5098838;28;20047;-88
2023/10/18 08:28:06;;;;;;;2.63;1.75;;;12.80;25.00;;;;;;5103894;28;20060;-86
2023/10/18 08:33:11;;;;;;;2.97;2.00;;;12.90;15.20;;;;;;5096714;28;20134;-86
2023/10/18 08:35:38;;;;;;;2.70;1.80;;;12.90;15.50;;;;;;5071642;28;20052;-87
2023/10/18 08:38:05;;;;;;;3.88;1.92;;;12.90;10.10;;;;;;5071118;28;20060;-87
2023/10/18 08:43:18;;;;;;;4.93;2.85;;;12.90;10.70;;;;;;5089261;28;20074;-87
2023/10/18 08:45:48;;;;;;;3.53;2.58;;;12.90;7.60;;;;;;5072376;28;20050;-86
2023/10/18 08:48:38;;;;;;;2.92;2.40;;;12.90;4.60;;;;;;5056968;28;20131;-87
2023/10/18 08:51:05;;;;;;;6.03;3.22;;;13.00;1.00;;;;;;5107974;28;20050;-87
2023/10/18 08:53:33;;;;;;;2.58;2.08;;;12.90;1.00;;;;;;5094225;28;20418;-87
2023/10/18 08:56:06;;;;;;;5.00;2.92;;;13.00;1.10;;;;;;5075072;28;20062;-84
2023/10/18 08:58:35;;;;;;;3.05;2.53;;;13.00;1.00;;;;;;5086801;28;20055;-88
2023/10/18 09:01:14;;;;;;;4.55;2.60;;;13.00;4.60;;;;;;5107797;28;20171;-87
2023/10/18 09:03:41;;;;;;;4.15;2.72;;;13.00;8.70;;;;;;5077990;28;20561;-88
2023/10/18 09:06:30;;;;;;;4.13;2.72;;;13.00;19.90;;;;;;5090089;28;20047;-89
2023/10/18 09:09:10;;;;;;;5.18;3.30;;;13.00;34.50;;;;;;5101718;28;20633;-89
2023/10/18 09:11:47;;;;;;;3.83;2.65;;;13.10;39.50;;;;;;5094693;28;20071;-88
2023/10/18 09:14:15;;;;;;;5.80;3.08;;;13.10;37.10;;;;;;5085005;28;20457;-86
2023/10/18 09:16:46;;;;;;;5.18;2.58;;;13.20;23.50;;;;;;5061134;28;20052;-86
2023/10/18 09:19:13;;;;;;;4.20;3.03;;;13.20;26.00;;;;;;5076677;28;20229;-80
2023/10/18 09:21:45;;;;;;;2.90;2.30;;;13.30;22.20;;;;;;5068843;28;20059;-86
2023/10/18 09:24:14;;;;;;;3.13;2.28;;;13.30;14.80;;;;;;5069655;28;20051;-86
2023/10/18 09:26:43;;;;;;;3.05;2.28;;;13.40;4.30;;;;;;5069045;28;20036;-87
2023/10/18 09:29:10;;;;;;;3.90;2.22;;;13.50;1.00;;;;;;5103467;28;20465;-86
2023/10/18 09:31:52;;;;;;;3.08;2.00;;;13.60;1.00;;;;;;5074349;28;20116;-86
2023/10/18 09:34:20;;;;;;;3.13;2.25;;;13.60;1.00;;;;;;5092912;28;20066;-86
2023/10/18 09:36:56;;;;;;;2.72;1.83;;;13.70;1.00;;;;;;5073003;28;20059;-87
2023/10/18 09:39:37;;;;;;;4.00;2.20;;;13.80;1.00;;;;;;5072948;28;20048;-86
2023/10/18 09:42:15;;;;;;;2.70;2.10;;;13.90;1.00;;;;;;5078008;28;20065;-86
2023/10/18 09:44:43;;;;;;;2.53;1.92;;;13.90;1.00;;;;;;5077192;28;20058;-86
2023/10/18 09:47:10;;;;;;;2.20;1.60;;;13.90;1.00;;;;;;5109052;28;20057;-86
2023/10/18 09:49:43;;;;;;;2.65;2.25;;;14.00;1.00;;;;;;5074875;28;20063;-86
2023/10/18 09:52:12;;;;;;;2.83;2.10;;;14.00;1.00;;;;;;5075866;28;20140;-85
2023/10/18 09:54:52;;;;;;;3.13;1.98;;;14.00;1.00;;;;;;5073939;28;20051;-86
2023/10/18 09:57:23;;;;;;;2.38;1.95;;;14.00;1.00;;;;;;5075271;28;20075;-85
2023/10/18 09:59:54;;;;;;;2.25;1.65;;;14.00;1.00;;;;;;5074823;28;20134;-85
2023/10/18 10:02:21;;;;;;;3.33;2.00;;;14.00;1.00;;;;;;5074400;28;20053;-85
2023/10/18 10:04:52;;;;;;;2.60;2.15;;;14.00;1.00;;;;;;5073945;28;20052;-85
2023/10/18 10:07:37;;;;;;;2.92;2.17;;;14.00;1.00;;;;;;5074941;28;20074;-85
2023/10/18 10:10:08;;;;;;;3.25;2.30;;;14.00;1.00;;;;;;5077968;28;20040;-85
2023/10/18 10:12:36;;;;;;;4.15;2.70;;;13.90;1.00;;;;;;5074355;28;20077;-85
2023/10/18 10:15:13;;;;;;;5.93;2.78;;;13.90;1.00;;;;;;5107130;28;20051;-85
2023/10/18 10:17:55;;;;;;;3.63;2.60;;;13.80;1.00;;;;;;5091790;28;20497;-86
2023/10/18 10:20:23;;;;;;;4.30;2.92;;;13.80;1.00;;;;;;5107862;28;20053;-85
2023/10/18 10:22:50;;;;;;;3.72;2.90;;;13.90;1.00;;;;;;5090742;28;20155;-86
2023/10/18 10:25:30;;;;;;;3.75;2.60;;;13.90;1.00;;;;;;5107737;28;20054;-86
2023/10/18 10:28:14;;;;;;;4.60;2.95;;;14.00;1.00;;;;;;5082552;28;20119;-86
2023/10/18 10:30:44;;;;;;;3.38;2.40;;;14.10;1.00;;;;;;5075295;28;20147;-85
2023/10/18 10:33:13;;;;;;;3.35;2.28;;;14.20;1.00;;;;;;5107803;28;20050;-86
2023/10/18 10:35:45;;;;;;;2.88;2.05;;;14.30;1.00;;;;;;5088332;28;20498;-85
2023/10/18 10:38:18;;;;;;;2.92;2.03;;;14.40;1.00;;;;;;5071045;28;20086;-86
2023/10/18 10:40:49;;;;;;;2.70;2.05;;;14.40;1.00;;;;;;5068910;28;20512;-86
2023/10/18 10:43:20;;;;;;;3.97;2.72;;;14.50;1.00;;;;;;5073203;28;20130;-85
2023/10/18 10:54:01;;;;;;;4.05;2.70;;;14.60;1.00;;;;;;5093815;28;20538;-86
2023/10/18 10:56:32;;;;;;;4.65;3.22;;;14.60;1.00;;;;;;5075868;28;20055;-86
2023/10/18 11:01:39;;;;;;;4.00;2.55;;;14.50;1.00;;;;;;5108932;28;20055;-85
2023/10/18 11:04:26;;;;;;;3.70;2.80;;;14.50;1.00;;;;;;5107500;28;20150;-85
2023/10/18 11:06:56;;;;;;;3.30;2.63;;;14.50;1.00;;;;;;5108633;28;20051;-85
2023/10/18 11:09:34;;;;;;;4.18;2.85;;;14.50;1.00;;;;;;5090471;28;20437;-86
2023/10/18 11:12:03;;;;;;;4.57;3.10;;;14.50;1.00;;;;;;5109121;28;20078;-86
2023/10/18 11:14:31;;;;;;;3.50;2.70;;;14.50;1.00;;;;;;5107073;28;20043;-86
2023/10/18 11:17:03;;;;;;;3.70;2.67;;;14.50;1.00;;;;;;5107536;28;20132;-86
2023/10/18 11:19:31;;;;;;;3.65;2.97;;;14.70;1.00;;;;;;5073308;28;20048;-85
2023/10/18 11:21:58;;;;;;;4.68;3.17;;;14.70;1.00;;;;;;5071574;28;20052;-86
2023/10/18 11:24:27;;;;;;;3.75;2.72;;;14.70;1.00;;;;;;5078846;28;20063;-85
2023/10/18 11:26:58;;;;;;;2.53;2.00;;;14.70;1.00;;;;;;5087976;28;20043;-84
2023/10/18 11:29:25;;;;;;;4.50;2.60;;;14.80;1.00;;;;;;5071067;28;20123;-86
2023/10/18 11:31:55;;;;;;;5.70;2.80;;;14.80;1.00;;;;;;5089250;28;20174;-86
2023/10/18 11:34:25;;;;;;;3.60;2.50;;;14.80;1.00;;;;;;5087180;28;20054;-85
2023/10/18 11:36:54;;;;;;;3.28;2.38;;;14.90;1.00;;;;;;5105494;28;20121;-85
2023/10/18 11:39:25;;;;;;;4.05;2.78;;;14.90;1.00;;;;;;5103382;28;20051;-86
2023/10/18 11:41:56;;;;;;;4.18;2.83;;;14.90;1.00;;;;;;5087771;28;20135;-86
2023/10/18 11:44:30;;;;;;;3.10;2.30;;;15.00;1.00;;;;;;5071499;28;20052;-85
2023/10/18 11:47:20;;;;;;;3.33;2.53;;;15.10;1.00;;;;;;5091439;28;20102;-86
2023/10/18 11:49:53;;;;;;;3.97;2.88;;;15.10;1.00;;;;;;5077724;28;20044;-86
2023/10/18 11:52:25;;;;;;;;;;;15.00;1.00;;;;;;5120556;28;20062;-86
2023/10/18 11:55:09;;;;;;;5.50;3.30;;;14.90;1.00;;;;;;5084382;28;20323;-85
2023/10/18 11:57:40;;;;;;;3.35;2.65;;;14.80;1.00;;;;;;5100731;28;20426;-86
2023/10/18 12:02:55;;;;;;;4.75;3.00;;;15.00;1.00;;;;;;5087032;28;20355;-86
2023/10/18 12:05:23;;;;;;;4.30;3.20;;;15.10;1.00;;;;;;5105154;28;20051;-85
2023/10/18 12:07:53;;;;;;;3.65;3.13;;;15.10;1.00;;;;;;5090227;28;20132;-86
2023/10/18 12:10:34;;;;;;;4.13;3.33;;;15.00;1.00;;;;;;5086130;28;20863;-85
2023/10/18 12:13:12;;;;;;;4.30;3.13;;;15.00;1.00;;;;;;5070365;28;20058;-86
2023/10/18 12:15:39;;;;;;;3.50;2.58;;;15.00;1.00;;;;;;5089022;28;20058;-86
2023/10/18 12:18:09;;;;;;;4.20;3.10;;;15.00;1.00;;;;;;5105749;28;20089;-85
2023/10/18 12:20:45;;;;;;;3.50;2.92;;;15.00;1.00;;;;;;5069597;28;20050;-85
2023/10/18 12:23:13;;;;;;;4.07;2.90;;;15.10;1.00;;;;;;5054779;28;20507;-86
2023/10/18 12:25:43;;;;;;;4.72;3.15;;;15.00;1.00;;;;;;5072747;28;20047;-86
2023/10/18 12:28:13;;;;;;;4.97;3.78;;;15.00;1.00;;;;;;5072358;28;20096;-85
2023/10/18 12:30:41;;;;;;;5.22;3.50;;;14.90;1.00;;;;;;5070921;28;20131;-86
2023/10/18 12:33:14;;;;;;;4.95;3.30;;;14.80;1.00;;;;;;5071196;28;20062;-85
2023/10/18 12:35:42;;;;;;;4.75;2.88;;;14.70;2.70;;;;;;5075792;28;20370;-85
2023/10/18 12:38:15;;;;;;;6.18;3.20;;;14.60;28.60;;;;;;5089072;28;20128;-85
2023/10/18 12:40:52;;;;;;;4.13;2.88;;;14.50;31.20;;;;;;5069741;28;20076;-86
2023/10/18 12:43:19;;;;;;;3.55;2.53;;;14.60;75.30;;;;;;5089972;28;20055;-86
2023/10/18 12:45:50;;;;;;;4.53;3.03;;;14.60;71.00;;;;;;5074012;28;20047;-85
2023/10/18 12:48:27;;;;;;;5.22;3.28;;;14.50;90.10;;;;;;5078293;28;20070;-86
2023/10/18 12:50:55;;;;;;;3.90;2.72;;;14.40;78.40;;;;;;5077615;28;20074;-86
2023/10/18 12:58:48;;;;;;;4.45;3.05;;;14.30;99.90;;;;;;5091187;28;20059;-86
2023/10/18 13:01:15;;;;;;;6.28;3.67;;;14.20;99.90;;;;;;5105104;28;20074;-86
2023/10/18 13:03:45;;;;;;;5.32;3.67;;;14.10;99.90;;;;;;5103558;28;20051;-87
2023/10/18 13:06:16;;;;;;;4.60;3.60;;;14.10;99.90;;;;;;5069933;28;20442;-86
2023/10/18 13:08:56;;;;;;;3.95;2.92;;;14.00;99.90;;;;;;5070693;28;20112;-86
2023/10/18 13:11:44;;;;;;;5.68;2.90;;;14.10;99.90;;;;;;5089444;28;20052;-87
2023/10/18 13:14:14;;;;;;;3.53;3.20;;;14.00;99.90;;;;;;5090955;28;20051;-86
2023/10/18 13:16:44;;;;;;;3.80;2.53;;;14.00;99.90;;;;;;5072022;28;20075;-87
2023/10/18 13:19:14;;;;;;;4.28;2.97;;;14.00;99.90;;;;;;5072291;28;20542;-86
2023/10/18 13:21:43;;;;;;;4.15;2.92;;;13.90;99.90;;;;;;5072439;28;20143;-85
2023/10/18 13:26:53;;;;;;;3.72;2.70;;;13.80;1.00;;;;;;5087149;28;20442;-85
2023/10/18 13:31:49;;;;;;;4.53;3.30;;;13.80;90.20;;;;;;5105211;28;20044;-86
2023/10/18 13:34:18;;;;;;;4.10;2.78;;;13.70;99.90;;;;;;5087283;28;20048;-85
2023/10/18 13:36:53;;;;;;;4.82;2.88;;;13.60;99.90;;;;;;5105431;28;20043;-85
2023/10/18 13:39:22;;;;;;;3.83;2.75;;;13.60;1.00;;;;;;5085533;28;20194;-87
2023/10/18 13:41:49;;;;;;;4.45;2.88;;;13.50;99.90;;;;;;5086340;28;20054;-86
2023/10/18 13:44:19;;;;;;;5.25;3.10;;;13.50;99.90;;;;;;5069106;28;20052;-86
2023/10/18 13:46:50;;;;;;;3.42;2.45;;;13.40;99.90;;;;;;5071204;28;20130;-86
2023/10/18 13:49:39;;;;;;;2.78;2.35;;;13.40;99.90;;;;;;5086762;28;20051;-85
2023/10/18 13:52:06;;;;;;;5.35;2.85;;;13.40;1.00;;;;;;5088319;28;20493;-86
2023/10/18 13:54:34;;;;;;;3.97;2.70;;;13.30;99.90;;;;;;5076848;28;20052;-86
2023/10/18 13:57:02;;;;;;;4.88;2.67;;;13.30;99.90;;;;;;5086185;28;20056;-85
2023/10/18 13:59:29;;;;;;;3.78;2.80;;;13.30;99.90;;;;;;5103156;28;20150;-85
2023/10/18 14:01:57;;;;;;;4.18;3.05;;;13.20;1.00;;;;;;5102708;28;20047;-86
2023/10/18 14:04:28;;;;;;;5.30;3.17;;;13.20;19.70;;;;;;5104171;28;20043;-85
2023/10/18 14:06:59;;;;;;;4.65;2.65;;;13.20;99.90;;;;;;5087311;28;20408;-85
2023/10/18 14:09:32;;;;;;;4.50;2.53;;;13.10;1.00;;;;;;5069826;28;20155;-85
2023/10/18 14:12:01;;;;;;;4.63;2.80;;;13.10;34.30;;;;;;5071527;28;20400;-85
2023/10/18 14:14:28;;;;;;;3.65;2.90;;;13.10;99.90;;;;;;5070002;28;20337;-85
2023/10/18 14:16:56;;;;;;;3.78;3.10;;;13.10;99.90;;;;;;5069808;28;20073;-86
2023/10/18 14:19:24;;;;;;;3.63;2.97;;;13.10;99.90;;;;;;5107371;28;20051;-87
2023/10/18 14:21:51;;;;;;;4.85;3.35;;;13.10;1.00;;;;;;5076101;28;20083;-86